KBFL/BFL METAR and TAF weather

Enter ICAO airport designator
Station Type Date Time Source
KBFL METAR 2021/02/25 00:54 UTC NOAA

KBFL 250054Z 32009KT 10SM CLR 21/M02 A3006 RMK AO2 SLP177 T02061017


Station Type Date Time Source
KBFL Decoded METAR 2021/02/25 00:54 UTC NOAA

BAKERSFIELD MEADOWS FIELD, CA, United States (KBFL) 35-26N 119-03W 151M
Feb 24, 2021 - 07:54 PM EST / 2021.02.25 0054 UTC
Wind: from the NW (320 degrees) at 10 MPH (9 KT):0
Visibility: 10 mile(s):0
Sky conditions: clear
Temperature: 69.1 F (20.6 C)
Dew Point: 28.9 F (-1.7 C)
Relative Humidity: 22%
Pressure (altimeter): 30.06 in. Hg (1017 hPa)
ob: KBFL 250054Z 32009KT 10SM CLR 21/M02 A3006 RMK AO2 SLP177 T02061017
cycle: 1

Station Type Date Time Source
KBFL TAF 2021/02/24 18:22 UTC NOAA

TAF KBFL 241720Z 2418/2518 00000KT 5SM HZ SKC
FM242000 33008KT P6SM SKC
FM250500 06004KT P6SM SKC
FM251200 VRB03KT P6SM SKC

Example: see airport list